createdAt,value
2022-09-28T00:01:17.454Z,74.34
2022-09-28T00:03:45.139Z,74.36
2022-09-28T00:06:14.176Z,74.43
2022-09-28T00:08:41.072Z,74.52
2022-09-28T00:11:11.733Z,74.53
2022-09-28T00:13:38.648Z,74.49
2022-09-28T00:16:09.836Z,74.53
2022-09-28T00:18:36.806Z,74.44
2022-09-28T00:21:05.138Z,74.37
2022-09-28T00:23:33.197Z,74.63
2022-09-28T00:26:04.815Z,74.45
2022-09-28T00:28:32.359Z,74.49
2022-09-28T00:30:59.619Z,74.46
2022-09-28T00:33:26.312Z,74.50
2022-09-28T00:35:58.048Z,74.55
2022-09-28T00:38:28.814Z,74.63
2022-09-28T00:40:55.842Z,74.65
2022-09-28T00:43:23.521Z,74.42
2022-09-28T00:46:10.192Z,74.43
2022-09-28T00:48:40.438Z,74.59
2022-09-28T00:51:11.314Z,74.52
2022-09-28T00:53:42.861Z,74.38
2022-09-28T00:56:16.895Z,74.34
2022-09-28T00:58:46.621Z,74.53
2022-09-28T01:01:13.723Z,74.44
2022-09-28T01:03:44.742Z,74.58
2022-09-28T01:06:20.663Z,74.46
2022-09-28T01:08:51.325Z,74.38
2022-09-28T01:11:19.192Z,74.38
2022-09-28T01:13:50.811Z,74.37
2022-09-28T01:16:31.433Z,74.51
2022-09-28T01:19:11.018Z,74.47
2022-09-28T01:21:51.196Z,74.50
2022-09-28T01:24:30.840Z,74.40
2022-09-28T01:27:05.366Z,74.52
2022-09-28T01:29:47.260Z,74.35
2022-09-28T01:32:39.757Z,74.52
2022-09-28T01:35:14.912Z,74.53
2022-09-28T01:37:51.715Z,74.47
2022-09-28T01:40:21.132Z,74.52
2022-09-28T01:42:53.715Z,74.48
2022-09-28T01:45:26.465Z,74.72
2022-09-28T01:47:59.994Z,74.59
2022-09-28T01:50:30.578Z,74.59
2022-09-28T01:53:05.616Z,74.58
2022-09-28T01:55:47.528Z,74.71
2022-09-28T01:58:44.227Z,74.61
2022-09-28T02:01:28.946Z,74.56
2022-09-28T02:04:02.102Z,74.54
2022-09-28T02:06:39.999Z,74.63
2022-09-28T02:09:35.686Z,74.47
2022-09-28T02:12:14.519Z,74.48
2022-09-28T02:14:44.531Z,74.67
2022-09-28T02:17:12.091Z,74.58
2022-09-28T02:19:40.752Z,74.57
2022-09-28T02:22:24.279Z,74.66
2022-09-28T02:25:03.327Z,74.47
2022-09-28T02:27:40.747Z,74.47
2022-09-28T02:30:08.611Z,74.56
2022-09-28T02:32:42.160Z,74.55
2022-09-28T02:35:14.734Z,74.40
2022-09-28T02:37:42.149Z,74.49
2022-09-28T02:40:14.117Z,74.49
2022-09-28T02:43:09.687Z,74.47
2022-09-28T02:45:45.485Z,74.30
2022-09-28T02:48:43.484Z,74.35
2022-09-28T02:51:37.410Z,74.44
2022-09-28T02:54:19.306Z,74.61
2022-09-28T02:57:01.147Z,74.45
2022-09-28T02:59:53.540Z,74.34
2022-09-28T03:02:42.393Z,74.47
2022-09-28T03:05:14.473Z,74.43
2022-09-28T03:07:46.014Z,74.39
2022-09-28T03:10:34.928Z,74.39
2022-09-28T03:13:03.197Z,74.61
2022-09-28T03:15:34.778Z,74.51
2022-09-28T03:18:02.148Z,74.48
2022-09-28T03:20:30.081Z,74.49
2022-09-28T03:23:20.173Z,74.61
2022-09-28T03:25:43.883Z,74.43
2022-09-28T03:28:10.622Z,74.49
2022-09-28T03:30:37.279Z,74.57
2022-09-28T03:33:04.835Z,74.42
2022-09-28T03:35:31.557Z,74.38
2022-09-28T03:37:58.292Z,74.50
2022-09-28T03:40:25.378Z,74.41
2022-09-28T03:42:53.390Z,74.41
2022-09-28T03:45:20.104Z,74.62
2022-09-28T03:47:48.103Z,74.43
2022-09-28T03:50:15.671Z,74.43
2022-09-28T03:52:42.436Z,74.34
2022-09-28T03:55:10.434Z,74.45
2022-09-28T03:57:37.323Z,74.28
2022-09-28T04:00:04.983Z,74.40
2022-09-28T04:02:33.173Z,74.56
2022-09-28T04:05:00.008Z,74.46
2022-09-28T04:07:30.791Z,74.39
2022-09-28T04:09:58.450Z,74.38
2022-09-28T04:12:25.145Z,74.41
2022-09-28T04:14:51.813Z,74.43
2022-09-28T04:17:18.614Z,74.40
2022-09-28T04:19:46.845Z,74.37
2022-09-28T04:22:13.656Z,74.19
2022-09-28T04:24:42.900Z,74.42
2022-09-28T04:27:28.373Z,74.43
2022-09-28T04:29:55.180Z,74.47
2022-09-28T04:32:22.006Z,74.40
2022-09-28T04:34:48.915Z,74.24
2022-09-28T04:37:15.689Z,74.25
2022-09-28T04:39:47.478Z,74.30
2022-09-28T04:42:15.403Z,74.51
2022-09-28T04:44:42.472Z,74.24
2022-09-28T04:47:09.375Z,74.23
2022-09-28T04:49:37.722Z,74.31
2022-09-28T04:52:05.687Z,74.30
2022-09-28T04:54:32.525Z,74.33
2022-09-28T04:56:59.267Z,74.31
2022-09-28T04:59:28.905Z,74.24
2022-09-28T05:01:55.608Z,74.41
2022-09-28T05:04:25.814Z,74.33
2022-09-28T05:06:52.917Z,74.40
2022-09-28T05:09:19.571Z,74.35
2022-09-28T05:11:48.928Z,74.35
2022-09-28T05:14:16.199Z,74.51
2022-09-28T05:16:44.298Z,74.34
2022-09-28T05:19:11.895Z,74.40
2022-09-28T05:21:38.775Z,74.38
2022-09-28T05:24:06.953Z,74.25
2022-09-28T05:26:34.182Z,74.15
2022-09-28T05:29:00.983Z,74.29
2022-09-28T05:31:27.818Z,74.32
2022-09-28T05:33:54.763Z,74.47
2022-09-28T05:36:21.805Z,74.40
2022-09-28T05:38:48.449Z,74.65
2022-09-28T05:41:15.264Z,74.21
2022-09-28T05:43:43.922Z,74.25
2022-09-28T05:46:11.163Z,74.33
2022-09-28T05:48:37.968Z,74.41
2022-09-28T05:51:05.066Z,74.35
2022-09-28T05:53:31.871Z,74.34
2022-09-28T05:55:59.239Z,74.43
2022-09-28T05:58:27.733Z,74.30
2022-09-28T06:00:56.066Z,74.41
2022-09-28T06:03:23.469Z,74.28
2022-09-28T06:05:50.947Z,74.34
2022-09-28T06:08:17.710Z,74.74
2022-09-28T06:10:44.678Z,74.58
2022-09-28T06:13:11.760Z,74.45
2022-09-28T06:15:42.025Z,74.44
2022-09-28T06:18:16.338Z,74.30
2022-09-28T06:20:43.492Z,74.40
2022-09-28T06:23:12.374Z,74.48
2022-09-28T06:25:39.552Z,74.47
2022-09-28T06:28:14.864Z,74.52
2022-09-28T06:30:43.043Z,74.58
2022-09-28T06:33:12.300Z,74.44
2022-09-28T06:35:40.102Z,74.25
2022-09-28T06:38:06.911Z,74.06
2022-09-28T06:40:33.989Z,73.97
2022-09-28T06:43:09.920Z,74.11
2022-09-28T06:45:38.212Z,74.13
2022-09-28T06:48:05.724Z,73.98
2022-09-28T06:50:42.280Z,73.91
2022-09-28T06:53:12.999Z,73.96
2022-09-28T06:55:42.289Z,73.73
2022-09-28T06:58:14.288Z,73.76
2022-09-28T07:00:41.499Z,73.97
2022-09-28T07:03:11.791Z,74.02
2022-09-28T07:05:42.202Z,73.97
2022-09-28T07:08:09.096Z,73.90
2022-09-28T07:10:44.432Z,73.94
2022-09-28T07:13:34.312Z,73.76
2022-09-28T07:16:00.880Z,73.69
2022-09-28T07:18:29.278Z,73.77
2022-09-28T07:20:56.874Z,73.72
2022-09-28T07:23:27.123Z,73.87
2022-09-28T07:25:54.195Z,73.66
2022-09-28T07:28:21.745Z,73.87
2022-09-28T07:30:48.631Z,73.57
2022-09-28T07:33:16.963Z,73.75
2022-09-28T07:35:51.858Z,73.41
2022-09-28T07:38:18.864Z,73.54
2022-09-28T07:41:04.258Z,73.62
2022-09-28T07:43:32.095Z,73.57
2022-09-28T07:45:58.900Z,73.48
2022-09-28T07:48:25.924Z,73.38
2022-09-28T07:50:56.195Z,73.42
2022-09-28T07:53:24.912Z,73.46
2022-09-28T07:55:53.523Z,73.36
2022-09-28T07:58:21.018Z,73.47
2022-09-28T08:00:48.856Z,73.50
2022-09-28T08:03:17.230Z,73.52
2022-09-28T08:05:45.133Z,73.42
2022-09-28T08:08:11.872Z,73.33
2022-09-28T08:10:44.536Z,73.31
2022-09-28T08:13:14.481Z,73.50
2022-09-28T08:15:41.939Z,73.31
2022-09-28T08:18:08.861Z,73.21
2022-09-28T08:20:54.050Z,72.95
2022-09-28T08:23:20.787Z,72.96
2022-09-28T08:25:48.481Z,72.81
2022-09-28T08:28:18.929Z,72.91
2022-09-28T08:30:46.770Z,72.80
2022-09-28T08:33:16.953Z,72.69
2022-09-28T08:35:44.984Z,72.83
2022-09-28T08:38:12.608Z,72.86
2022-09-28T08:40:57.653Z,72.94
2022-09-28T08:43:56.407Z,72.78
2022-09-28T08:46:29.142Z,72.54
2022-09-28T08:49:30.534Z,72.64
2022-09-28T08:51:54.885Z,72.53
2022-09-28T08:54:53.957Z,72.56
2022-09-28T08:57:27.372Z,72.59
2022-09-28T08:59:57.704Z,72.58
2022-09-28T09:02:35.630Z,72.32
2022-09-28T09:05:06.377Z,72.60
2022-09-28T09:08:14.428Z,72.77
2022-09-28T09:11:01.272Z,72.52
2022-09-28T09:13:45.195Z,72.46
2022-09-28T09:16:24.079Z,72.40
2022-09-28T09:19:15.176Z,72.37
2022-09-28T09:22:04.643Z,72.33
2022-09-28T09:24:44.020Z,72.40
2022-09-28T09:27:28.518Z,72.25
2022-09-28T09:30:01.585Z,72.19
2022-09-28T09:32:37.168Z,72.50
2022-09-28T09:35:24.626Z,72.35
2022-09-28T09:38:16.214Z,72.22
2022-09-28T09:41:01.261Z,72.28
2022-09-28T09:43:30.933Z,72.01
2022-09-28T09:46:23.522Z,72.06
2022-09-28T09:49:20.130Z,72.06
2022-09-28T09:51:56.533Z,72.22
2022-09-28T09:54:34.525Z,72.06
2022-09-28T09:57:09.590Z,71.68
2022-09-28T09:59:41.173Z,71.60
2022-09-28T10:02:22.746Z,71.76
2022-09-28T10:04:54.372Z,71.45
2022-09-28T10:07:32.927Z,71.86
2022-09-28T10:10:02.021Z,71.79
2022-09-28T10:12:30.475Z,71.71
2022-09-28T10:14:57.857Z,71.50
2022-09-28T10:17:26.751Z,71.72
2022-09-28T10:19:56.316Z,71.33
2022-09-28T10:22:27.069Z,71.35
2022-09-28T10:24:57.831Z,71.41
2022-09-28T10:27:30.010Z,71.39
2022-09-28T10:30:09.115Z,71.21
2022-09-28T10:32:43.244Z,71.11
2022-09-28T10:35:19.266Z,71.26
2022-09-28T10:38:14.032Z,71.59
2022-09-28T10:40:50.131Z,71.38
2022-09-28T10:43:25.707Z,70.92
2022-09-28T10:46:14.671Z,70.94
2022-09-28T10:49:14.864Z,70.86
2022-09-28T10:51:46.012Z,70.68
2022-09-28T10:54:21.475Z,70.47
2022-09-28T10:56:49.990Z,70.94
2022-09-28T10:59:28.876Z,71.23
2022-09-28T11:01:59.983Z,71.03
2022-09-28T11:04:30.297Z,71.03
2022-09-28T11:09:31.920Z,70.63
2022-09-28T11:12:01.014Z,70.44
2022-09-28T11:14:43.129Z,70.07
2022-09-28T11:17:32.634Z,70.06
2022-09-28T11:20:24.702Z,70.05
2022-09-28T11:22:56.902Z,70.16
2022-09-28T11:25:25.033Z,70.33
2022-09-28T11:27:51.877Z,70.02
2022-09-28T11:30:38.045Z,70.02
2022-09-28T11:33:11.736Z,69.93
2022-09-28T11:36:03.014Z,69.97
2022-09-28T11:38:40.804Z,69.63
2022-09-28T11:41:24.473Z,69.72
2022-09-28T11:43:59.537Z,69.41
2022-09-28T11:46:41.323Z,69.23
2022-09-28T11:49:19.871Z,69.22
2022-09-28T11:51:59.025Z,69.01
2022-09-28T11:54:44.561Z,67.64
2022-09-28T11:57:17.876Z,68.23
2022-09-28T12:00:04.924Z,68.26
2022-09-28T12:03:03.678Z,68.46
2022-09-28T12:05:40.104Z,68.86
2022-09-28T12:08:24.889Z,68.65
2022-09-28T12:11:05.634Z,68.50
2022-09-28T12:13:37.076Z,68.46
2022-09-28T12:16:53.455Z,68.53
2022-09-28T12:19:34.769Z,67.84
2022-09-28T12:22:05.297Z,67.17
2022-09-28T12:24:48.819Z,67.40
2022-09-28T12:27:28.176Z,67.79
2022-09-28T12:30:01.809Z,68.00
2022-09-28T12:32:41.572Z,68.16
2022-09-28T12:35:59.370Z,67.95
2022-09-28T12:39:46.881Z,67.30
2022-09-28T12:42:45.040Z,67.32
2022-09-28T12:46:09.822Z,67.37
2022-09-28T12:50:01.772Z,67.27
2022-09-28T12:56:36.013Z,67.25
2022-09-28T12:59:39.231Z,66.99
2022-09-28T13:02:28.214Z,67.18
2022-09-28T13:05:13.566Z,67.35
2022-09-28T13:08:09.766Z,67.11
2022-09-28T13:11:25.870Z,66.98
2022-09-28T13:14:32.435Z,67.18
2022-09-28T13:17:00.992Z,67.07
2022-09-28T13:19:49.261Z,67.29
2022-09-28T13:22:33.440Z,67.24
2022-09-28T13:25:23.394Z,67.46
2022-09-28T13:28:00.530Z,67.43
2022-09-28T13:30:27.826Z,67.38
2022-09-28T13:33:00.741Z,67.25
2022-09-28T13:38:28.913Z,67.23
2022-09-28T13:41:04.309Z,67.37
2022-09-28T13:43:41.439Z,67.47
2022-09-28T13:46:25.460Z,67.61
2022-09-28T13:49:17.142Z,67.73
2022-09-28T13:51:54.871Z,67.80
2022-09-28T13:54:52.097Z,67.89
2022-09-28T13:57:25.752Z,68.11
2022-09-28T14:00:07.126Z,68.45
2022-09-28T14:02:43.975Z,68.74
2022-09-28T14:05:22.663Z,68.82
2022-09-28T14:08:34.099Z,69.22
2022-09-28T14:11:24.455Z,69.17
2022-09-28T14:14:04.256Z,69.57
2022-09-28T14:16:33.933Z,69.73
2022-09-28T14:19:06.515Z,69.49
2022-09-28T14:21:57.827Z,69.58
2022-09-28T14:24:33.369Z,70.00
2022-09-28T14:27:31.888Z,70.40
2022-09-28T14:30:10.656Z,70.35
2022-09-28T14:32:40.188Z,70.42
2022-09-28T14:35:18.858Z,70.53
2022-09-28T14:38:07.986Z,70.46
2022-09-28T14:41:14.717Z,70.76
2022-09-28T14:43:44.480Z,70.80
2022-09-28T14:46:11.411Z,70.80
2022-09-28T14:48:54.286Z,70.72
2022-09-28T14:51:29.581Z,70.94
2022-09-28T14:54:02.507Z,70.88
2022-09-28T14:56:38.436Z,70.79
2022-09-28T14:59:12.422Z,71.08
2022-09-28T15:01:39.818Z,70.97
2022-09-28T15:04:12.342Z,70.98
2022-09-28T15:06:46.909Z,71.03
2022-09-28T15:09:33.466Z,71.00
2022-09-28T15:12:12.545Z,70.91
2022-09-28T15:15:01.729Z,71.09
2022-09-28T15:17:39.717Z,71.07
2022-09-28T15:20:30.005Z,71.21
2022-09-28T15:22:58.908Z,71.38
2022-09-28T15:25:28.226Z,71.36
2022-09-28T15:28:05.982Z,71.41
2022-09-28T15:30:34.674Z,71.42
2022-09-28T15:33:22.275Z,71.47
2022-09-28T15:36:03.021Z,71.43
2022-09-28T15:38:33.511Z,71.61
2022-09-28T15:41:04.873Z,71.52
2022-09-28T15:43:33.639Z,71.58
2022-09-28T15:46:21.299Z,71.68
2022-09-28T15:48:58.739Z,71.48
2022-09-28T15:51:27.842Z,71.56
2022-09-28T15:54:11.368Z,71.66
2022-09-28T15:56:59.719Z,71.42
2022-09-28T15:59:34.189Z,71.46
2022-09-28T16:02:16.842Z,71.38
2022-09-28T16:04:54.570Z,71.25
2022-09-28T16:07:41.058Z,71.35
2022-09-28T16:10:13.570Z,71.44
2022-09-28T16:12:42.590Z,71.37
2022-09-28T16:15:19.655Z,71.46
2022-09-28T16:18:02.128Z,71.28
2022-09-28T16:20:33.568Z,71.57
2022-09-28T16:23:30.515Z,71.50
2022-09-28T16:26:13.691Z,71.33
2022-09-28T16:28:41.856Z,71.55
2022-09-28T16:31:14.581Z,71.36
2022-09-28T16:33:59.050Z,71.42
2022-09-28T16:36:29.292Z,71.47
2022-09-28T16:38:56.478Z,71.52
2022-09-28T16:41:26.828Z,71.66
2022-09-28T16:44:00.869Z,71.70
2022-09-28T16:46:34.393Z,71.57
2022-09-28T16:49:02.551Z,71.80
2022-09-28T16:51:29.348Z,71.75
2022-09-28T16:54:28.392Z,71.75
2022-09-28T16:56:55.196Z,71.82
2022-09-28T16:59:21.865Z,71.71
2022-09-28T17:01:48.887Z,71.88
2022-09-28T17:04:15.711Z,72.13
2022-09-28T17:06:42.934Z,72.06
2022-09-28T17:09:12.970Z,72.04
2022-09-28T17:11:40.049Z,72.27
2022-09-28T17:14:08.273Z,72.11
2022-09-28T17:17:07.460Z,72.24
2022-09-28T17:19:25.296Z,72.30
2022-09-28T17:21:52.820Z,72.40
2022-09-28T17:24:20.277Z,72.48
2022-09-28T17:26:49.343Z,72.28
2022-09-28T17:29:16.279Z,72.37
2022-09-28T17:31:44.636Z,72.64
2022-09-28T17:34:14.638Z,72.50
2022-09-28T17:36:41.890Z,72.59
2022-09-28T17:39:16.984Z,72.79
2022-09-28T17:41:44.219Z,72.51
2022-09-28T17:44:13.323Z,72.62
2022-09-28T17:46:48.130Z,72.64
2022-09-28T17:49:16.045Z,72.71
2022-09-28T17:51:42.984Z,72.54
2022-09-28T17:54:10.471Z,72.64
2022-09-28T17:56:38.369Z,72.67
2022-09-28T17:59:09.253Z,72.64
2022-09-28T18:01:38.911Z,72.77
2022-09-28T18:04:08.240Z,72.86
2022-09-28T18:06:36.519Z,72.73
2022-09-28T18:09:04.188Z,72.71
2022-09-28T18:11:32.882Z,72.72
2022-09-28T18:14:00.305Z,72.64
2022-09-28T18:16:28.081Z,72.79
2022-09-28T18:18:55.115Z,73.07
2022-09-28T18:21:21.923Z,72.98
2022-09-28T18:23:48.876Z,73.01
2022-09-28T18:26:18.388Z,73.07
2022-09-28T18:28:45.812Z,73.12
2022-09-28T18:31:15.088Z,73.10
2022-09-28T18:33:43.177Z,72.99
2022-09-28T18:36:10.275Z,73.11
2022-09-28T18:38:37.869Z,73.09
2022-09-28T18:41:16.230Z,73.05
2022-09-28T18:43:48.523Z,73.03
2022-09-28T18:46:17.698Z,73.23
2022-09-28T18:48:44.467Z,73.37
2022-09-28T18:51:12.286Z,73.41
2022-09-28T18:53:39.959Z,73.38
2022-09-28T18:56:08.887Z,73.25
2022-09-28T18:58:43.293Z,73.17
2022-09-28T19:01:35.005Z,73.41
2022-09-28T19:04:04.971Z,73.31
2022-09-28T19:06:33.740Z,73.57
2022-09-28T19:09:01.015Z,73.56
2022-09-28T19:11:29.763Z,73.40
2022-09-28T19:13:57.266Z,73.11
2022-09-28T19:16:52.119Z,73.22
2022-09-28T19:19:21.106Z,73.35
2022-09-28T19:21:48.106Z,73.33
2022-09-28T19:24:18.122Z,73.56
2022-09-28T19:26:46.111Z,73.64
2022-09-28T19:29:13.960Z,73.58
2022-09-28T19:31:42.757Z,73.49
2022-09-28T19:34:13.297Z,73.52
2022-09-28T19:36:42.747Z,73.71
2022-09-28T19:39:13.386Z,73.49
2022-09-28T19:41:44.451Z,73.49
2022-09-28T19:44:19.118Z,73.62
2022-09-28T19:46:46.177Z,73.50
2022-09-28T19:49:22.029Z,73.61
2022-09-28T19:52:11.577Z,73.59
2022-09-28T19:54:37.884Z,73.64
2022-09-28T19:57:08.189Z,73.57
2022-09-28T19:59:38.489Z,73.54
2022-09-28T20:02:06.910Z,73.62
2022-09-28T20:04:33.811Z,73.51
2022-09-28T20:07:01.185Z,73.55
2022-09-28T20:09:28.350Z,73.60
2022-09-28T20:11:55.233Z,73.52
2022-09-28T20:14:24.483Z,73.56
2022-09-28T20:16:53.477Z,73.49
2022-09-28T20:19:22.444Z,73.43
2022-09-28T20:21:49.905Z,73.50
2022-09-28T20:24:16.977Z,73.31
2022-09-28T20:26:45.163Z,73.29
2022-09-28T20:29:12.316Z,73.27
2022-09-28T20:31:39.227Z,73.30
2022-09-28T20:34:06.900Z,73.45
2022-09-28T20:36:33.858Z,73.36
2022-09-28T20:39:01.967Z,73.32
2022-09-28T20:41:34.187Z,73.27
2022-09-28T20:44:05.272Z,73.18
2022-09-28T20:46:36.831Z,73.24
2022-09-28T20:49:04.698Z,73.43
2022-09-28T20:51:32.223Z,73.42
2022-09-28T20:53:59.781Z,73.49
2022-09-28T20:56:29.942Z,73.42
2022-09-28T20:58:57.112Z,73.34
2022-09-28T21:01:29.432Z,73.51
2022-09-28T21:03:57.488Z,73.45
2022-09-28T21:06:29.778Z,73.70
2022-09-28T21:08:57.125Z,73.48
2022-09-28T21:11:25.750Z,73.55
2022-09-28T21:13:58.052Z,73.55
2022-09-28T21:16:26.592Z,73.74
2022-09-28T21:18:53.511Z,73.62
2022-09-28T21:21:21.849Z,73.65
2022-09-28T21:23:52.730Z,73.76
2022-09-28T21:26:25.246Z,73.83
2022-09-28T21:28:57.703Z,73.73
2022-09-28T21:31:29.051Z,73.87
2022-09-28T21:33:57.138Z,73.74
2022-09-28T21:36:24.560Z,73.67
2022-09-28T21:38:51.438Z,73.60
2022-09-28T21:41:18.178Z,73.55
2022-09-28T21:43:45.359Z,73.67
2022-09-28T21:46:12.506Z,73.49
2022-09-28T21:48:39.994Z,73.48
2022-09-28T21:51:09.651Z,73.58
2022-09-28T21:53:37.691Z,73.60
2022-09-28T21:56:08.867Z,73.52
2022-09-28T21:58:36.400Z,73.48
2022-09-28T22:01:31.125Z,73.61
2022-09-28T22:03:58.539Z,73.40
2022-09-28T22:06:27.730Z,73.45
2022-09-28T22:08:55.134Z,73.54
2022-09-28T22:11:23.879Z,73.30
2022-09-28T22:13:53.584Z,73.16
2022-09-28T22:16:23.955Z,73.15
2022-09-28T22:18:51.008Z,73.24
2022-09-28T22:21:21.040Z,73.23
2022-09-28T22:23:53.008Z,73.26
2022-09-28T22:26:27.119Z,73.39
2022-09-28T22:29:07.277Z,73.34
2022-09-28T22:31:38.779Z,73.47
2022-09-28T22:34:09.130Z,73.59
2022-09-28T22:36:36.138Z,73.63
2022-09-28T22:39:03.156Z,73.75
2022-09-28T22:41:31.545Z,73.79
2022-09-28T22:43:58.544Z,73.55
2022-09-28T22:46:27.741Z,73.50
2022-09-28T22:48:57.677Z,73.57
2022-09-28T22:51:26.347Z,73.49
2022-09-28T22:53:53.152Z,73.50
2022-09-28T22:56:19.978Z,73.57
2022-09-28T22:58:46.994Z,73.61
2022-09-28T23:01:17.105Z,73.65
2022-09-28T23:03:44.364Z,73.64
2022-09-28T23:06:13.064Z,73.59
2022-09-28T23:08:39.850Z,73.54
2022-09-28T23:11:06.786Z,73.56
2022-09-28T23:13:34.599Z,73.49
2022-09-28T23:16:03.580Z,73.55
2022-09-28T23:18:32.774Z,73.51
2022-09-28T23:21:02.260Z,73.51
2022-09-28T23:23:29.648Z,73.47
2022-09-28T23:25:56.707Z,73.49
2022-09-28T23:28:25.657Z,73.44
2022-09-28T23:30:53.487Z,73.47
2022-09-28T23:33:20.897Z,73.41
2022-09-28T23:35:48.109Z,73.47
2022-09-28T23:38:20.097Z,73.47
2022-09-28T23:40:47.309Z,73.39
2022-09-28T23:43:14.775Z,73.48
2022-09-28T23:45:44.977Z,73.50
2022-09-28T23:48:14.317Z,73.56
2022-09-28T23:50:42.702Z,73.57
2022-09-28T23:53:11.410Z,73.66
2022-09-28T23:55:38.133Z,73.59
2022-09-28T23:58:05.167Z,73.56
